Main page
METAR-TAF:

METAR-TAF

Airports :

Flora Municipal Airport

Flora, Illinois, United States

latitude: 38-39-54N, longitude: 088-27-11W, elevation: 472 ft

Current weather observation

The report was made 31 minutes ago, at 11:15 UTC
Wind 5 mph from the South
Temperature 36°F
Humidity 75%
Pressure 30.13 in. Hg
Visibility: 10 miles
Scattered clouds at a height of 6000 ft
Overcast at a height of 7000 ft

METAR: KFOA 231115Z AUTO 17004KT 10SM SCT060 OVC070 02/M02 A3013 RMK AO2 TSNO

Time: 05:46 (11:46 UTC)


TAF: missing

Weather observations and forecasts of more than 4000 airports (METAR and TAF reports).

The available stations are represented by yellow and red dots on the map.

Hover mouse over dot to see the name of the station.

Then click to see weather observations and forecasts.

To change the map : click on the green buttons with a black cross to zoom in, on the green button with a dash to zoom out, or on the green arrows for adjacent maps.


METAR-TAF: